CP5 weather

CLOSED Red Bay Water Aerodrome
Red Bay, Newfoundland and Labrador, Canada

Public forecast

Using degrees Celsius for public forecast. Weather courtesy of forecast.io.

Closest aviation weather report (METAR) to Red Bay Water Aerodrome

Closest report is St. Anthony Airport, 24.1 nm (44.5 km) SE. Retrieved 2020/08/06 01:00 UTC (5 minutes ago):

CYAY 060100Z AUTO 15002KT 9SM CLR 14/11 A2990 RMK SLP129

Closest aviation forecast (TAF) to Red Bay Water Aerodrome

Closest forecast is St. Anthony Airport, 24.1 nm (44.5 km) SE. Retrieved 2020/08/05 20:39 UTC (4 hours ago):

TAF CYAY 051938Z 0520/0608 24012G22KT P6SM SKC BECMG 0522/0524 23010KT FM060000 23010KT P6SM FEW020 SCT080 FM060300 19005KT P6SM FEW009 BKN020 BKN080 TEMPO 0603/0608 BKN009 OVC020 PROB30 0605/0608 2SM BR OVC003 RMK FCST BASED ON AUTO OBS NXT FCST BY 060200Z